Minneapolis-St Paul International/Wold-Chamberlain Airport
KMSP : now visible

Airfield :











YOU CAN JOIN US ON...

 
LOGIN :

Register | Disclaimer

   EN    FR    IT 

 









Legend :    VFR   Marginal VFR   IFR   Intensive IFR   Very Intensive IFR
Visi :
Ceiling :
>= 8 km
>= 3000ft
5 to 8 km
1000 to 3000 ft
1500m to 5 km
500 to 1000 ft
800 to 1500m
200 to 500 ft
< 800m
< 200 ft
Symbols :   Thunderstorms  Fog  Heavy snow  Heavy precipitations  Wind > 20 kt






- Airport Elevation : 841 ft
- IATA code : MSP


KMSP - Minneapolis-St Paul International/Wold-Chamberlain

CURRENT METAR :
  • 172158Z 11014KT 1/4SM R30L/2000V3000FT +SN FZFG VV008 M08/M11 A3021 RMK AO2 TWR VIS 1/2 P0001 T10831106

EXPIRED METARs :
  • 172136Z 11013KT 1/4SM R30L/3000V4000FT SN FZFG VV009 M09/M11 A3023 RMK AO2 TWR VIS 1/2 PRESFR P0007 T10891111
  • 172107Z 11013KT 1/4SM R30L/2600V3500FT SN FZFG VV008 M09/M11 A3027 RMK AO2 TWR VIS 1/2 PRESFR P0002 T10891111
  • 172053Z 11012KT 1/4SM R30L/2600V3000FT SN FZFG VV007 M09/M11 A3028 RMK AO2 TWR VIS 1/2 PRESFR SLP276 SNINCR 1/6 P0007 60007 T10891111 58048
  • 172021Z 12011KT 1/4SM R30L/2800V3000FT SN FZFG VV009 M09/M12 A3032 RMK AO2 TWR VIS 1/2 P0003 T10941117
  • 172005Z 13010KT 1/2SM R30L/2600V3500FT SN VV012 M09/M13 A3034 RMK AO2 TWR VIS 1 P0001 T10941128
  • 171945Z 14012KT 1 1/4SM R30L/5000VP6000FT -SN BKN025 OVC070 M09/M14 A3035 RMK AO2 TWR VIS 2 SNB37 P0000 T10891144

TAF KMSP
Valid from the 17 at 21:00 until the 19 at 00:00 UTC


172048Z 1721/1824 12014KT 1/2SM SN BLSN VV009
TEMPO 1721/1724 1/4SM +SN VV004
FM180100 13018G27KT 1 1/2SM -SN BLSN OVC015
FM180900 14008KT 1SM -SN BR OVC008
FM181500 27007KT 2SM -SN OVC012
FM181800 30022G33KT 6SM BLSN BKN020



MET'MAP, your aeronautical weather chart ! - Copyright ORBIFLY December 2007 - Disclaimer

ORBIFLY MET'MAP TEAM :

Programming & Development : Alexandra Zaïnal
Concept & original design : Baudouin d'Aumeries
Assistance for programming : Marc-Olivier Méhu
Technical & hardware support : Manuel Goepfert

Contact : metmap@orbifly.com




SOURCES & CREDITS :

   NOAA       Earth
Advisory